Casper, WY (82604)

12:35 PM MDT on July 30, 2014 (GMT -0600)
North of Casper, WY (KWYBARNU1) Elev 5276 ft | 42.91 °N, 106.35 °W | Change Station

Current weather conditions updated 3 minutes ago

Clear
Clear
79.3 °F
Feels Like 79 °F
N
0.0
Wind Variable Wind from NNE
Gusts 6.0 mph

Today is forecast to be Much Warmer than yesterday.

Today
High -- | Low -- °F
--% Chance of Precip.
Yesterday
High -- | Low -- °F
Precip. -- in
5:54 AM 8:28 PM
Waxing Crescent, 13% visible
Pressure 30.18 in
Visibility 10.0 miles
Clouds Clear
Heat Index 79 °F
Dew Point 50 °F
Humidity 36%
Rainfall 0.00 in
Snow Depth 0 in
UV 11 out of 12
Pollen 5.00 out of 12
Air Quality Not available.
Flu Activity Not available.
METAR KCPR 301753Z VRB03KT 10SM CLR 21/09 A3033 RMK AO2 SLP219 T02110089 10211 20117 58005

More Conditions Fewer Conditions

Pressure 30.18 in
Visibility 10.0 miles
Clouds Clear
Heat Index 79 °F
Dew Point 50 °F
Humidity 36%
Rainfall 0.00 in
Snow Depth 0 in
UV 11 out of 12
Pollen 5.00 out of 12
Air Quality Not available.
Flu Activity Not available.
METAR KCPR 301753Z VRB03KT 10SM CLR 21/09 A3033 RMK AO2 SLP219 T02110089 10211 20117 58005

More Conditions Fewer Conditions

10-Day Weather Forecast

Almanac

Astronomy

Jul. 30, 2014 Rise Set
Actual Time 5:54 AM MDT 8:28 PM MDT
Civil Twilight 5:22 AM MDT 9:00 PM MDT
Nautical Twilight 4:42 AM MDT 9:40 PM MDT
Astronomical Twilight 3:56 AM MDT 10:26 PM MDT
Moon 9:35 AM MDT 10:05 PM MDT
Length of Visible Light 15h 38m
Length of Day
14h 33m
Tomorrow will be 2m 9s shorter.
Waxing Crescent, 13% of the Moon is Illuminated
Today
Waxing Crescent
Aug 3
First Quarter
Aug 10
Full
Aug 17
Last Quarter
Aug 25
New

Today's Extremes

State Highs State Lows

Community

WunderPhotos

Upload Photos

1,739,147 photos uploaded!

Nearby

Snow Depth

Station Depth Elevation
Casper Mountain 0 in 7850 ft
Grave Springs 1 in 8550 ft
Middle Powder 0 in 7760 ft
Sand Lake 0 in 10050 ft
Brooklyn Lake 0 in 10220 ft

Earthquake Activity

City Distance Mag. Time & Date
No recent earthquake activity has been reported nearby.
Minimum magnitude displayed is 2.5.

Coastal Water Temperatures

Place Temperature
No Stations Reporting

Nearby Weather Stations

Station Location Temp. Heat Index Dew Point Humidity Wind Precip. Elev Updated Type
HADS NORTH PLATTE RIVER AT CASPER WY, Casper, WY 73 °F 71 °F - - North  at  - 0.00 in / hr 5100 ft 11:30 AM MDT MADIS
North of Casper, WY, Bar Nunn, WY 79.3 °F 79 °F 50 °F 36% NNE  at  0.0 mph 0.00 in / hr 5276 ft 12:32 PM MDT Normal
RAWS CASPER MOUNTAIN WY, Casper, WY 61 °F - 43 °F 52% ESE  at  6 mph 0.00 in / hr 7740 ft 11:52 AM MDT MADIS

Show More Stations Show Fewer Stations